CPL2 weather

Bracebridge (South Muskoka Memorial Hospital) Heliport
Bracebridge, Ontario, Canada

Public forecast

Using degrees Celsius for public forecast. Weather courtesy of forecast.io.

Closest aviation weather report (METAR) to Bracebridge (South Muskoka Memorial Hospital) Heliport

Closest report is Muskoka Airport, 4.5 nm (8.3 km) S. Retrieved 2020/08/06 06:00 UTC (24 minutes ago):

CYQA 060600Z AUTO 13002KT 9SM CLR 09/09 A3009 RMK SLP193

Closest aviation forecast (TAF) to Bracebridge (South Muskoka Memorial Hospital) Heliport

Forecast is more than 6 hours old.

Closest forecast is Muskoka Airport, 4.5 nm (8.3 km) S. Retrieved 2020/08/05 20:00 UTC (10 hours ago):

TAF CYQA 051938Z 0520/0602 28010G20KT P6SM SCT020 TEMPO 0520/0522 P6SM -SHRA BKN020 FM052200 27010G20KT P6SM SCT020 TEMPO 0522/0602 BKN020 BECMG 0600/0602 VRB03KT RMK FCST BASED ON AUTO OBS NXT FCST WILL BE ISSUED AT 061145Z